Terminal Aerodrome Forecast
Issued by NWS

Home | Current Version | Previous Version | Text Only | Print | Product List | Glossary On
Versions: 1 2 3 4 5 6 7 8 9 10 11 12 13 14 15 16 17 18 19 20 21 22 23 24 25 26 27 28 29
000
FTUS41 KOKX 271534 AAA
TAFGON
TAF AMD
KGON 271534Z 2716/2812 13007KT 1/2SM -RA FG OVC002
      TEMPO 2716/2718 1/4SM FG
     FM272000 VRB05KT 3SM BR OVC005
     FM272200 VRB04KT 4SM BR OVC007
     FM280200 00000KT 1/2SM FG OVC002
     FM280600 00000KT 1/2SM FG OVC001=

USA.gov is the U.S. government's official web portal to all federal, state and local government web resources and services.